sensor_id;sensor_type;location;lat;lon;timestamp;pressure;altitude;pressure_sealevel;temperature;humidity
12973;BME280;6551;51.056;9.466;2024-03-25T00:01:39;96449.78;;;9.79;65.82
12973;BME280;6551;51.056;9.466;2024-03-25T00:04:05;96439.38;;;9.61;65.91
12973;BME280;6551;51.056;9.466;2024-03-25T00:06:31;96451.38;;;9.80;65.75
12973;BME280;6551;51.056;9.466;2024-03-25T00:09:00;96440.31;;;9.88;65.25
12973;BME280;6551;51.056;9.466;2024-03-25T00:11:28;96444.50;;;10.01;65.32
12973;BME280;6551;51.056;9.466;2024-03-25T00:13:54;96444.88;;;9.88;64.93
12973;BME280;6551;51.056;9.466;2024-03-25T00:16:19;96445.41;;;9.90;65.15
12973;BME280;6551;51.056;9.466;2024-03-25T00:18:45;96449.03;;;9.84;64.94
12973;BME280;6551;51.056;9.466;2024-03-25T00:21:11;96444.28;;;9.69;65.34
12973;BME280;6551;51.056;9.466;2024-03-25T00:23:36;96448.81;;;9.69;65.40
12973;BME280;6551;51.056;9.466;2024-03-25T00:26:02;96451.16;;;9.82;64.84
12973;BME280;6551;51.056;9.466;2024-03-25T00:28:28;96452.66;;;9.78;64.66
12973;BME280;6551;51.056;9.466;2024-03-25T00:30:54;96448.81;;;9.85;65.36
12973;BME280;6551;51.056;9.466;2024-03-25T00:33:20;96448.16;;;9.78;65.12
12973;BME280;6551;51.056;9.466;2024-03-25T00:35:45;96452.03;;;9.87;64.70
12973;BME280;6551;51.056;9.466;2024-03-25T00:38:12;96453.13;;;9.91;64.89
12973;BME280;6551;51.056;9.466;2024-03-25T00:40:38;96447.09;;;9.96;64.35
12973;BME280;6551;51.056;9.466;2024-03-25T00:43:04;96437.38;;;9.85;64.26
12973;BME280;6551;51.056;9.466;2024-03-25T00:45:29;96441.63;;;9.86;64.64
12973;BME280;6551;51.056;9.466;2024-03-25T00:47:58;96442.25;;;10.10;64.62
12973;BME280;6551;51.056;9.466;2024-03-25T00:50:26;96446.31;;;9.46;66.27
12973;BME280;6551;51.056;9.466;2024-03-25T00:52:53;96440.41;;;9.93;68.01
12973;BME280;6551;51.056;9.466;2024-03-25T00:55:18;96441.53;;;9.97;67.37
12973;BME280;6551;51.056;9.466;2024-03-25T00:57:44;96446.72;;;10.26;67.08
12973;BME280;6551;51.056;9.466;2024-03-25T01:00:12;96449.03;;;10.00;67.29
12973;BME280;6551;51.056;9.466;2024-03-25T01:02:38;96450.28;;;10.31;66.59
12973;BME280;6551;51.056;9.466;2024-03-25T01:05:05;96447.28;;;10.28;66.69
12973;BME280;6551;51.056;9.466;2024-03-25T01:07:31;96446.84;;;9.97;67.14
12973;BME280;6551;51.056;9.466;2024-03-25T01:09:57;96450.06;;;9.83;67.42
12973;BME280;6551;51.056;9.466;2024-03-25T01:12:24;96443.97;;;9.99;67.19
12973;BME280;6551;51.056;9.466;2024-03-25T01:14:52;96448.97;;;9.79;67.91
12973;BME280;6551;51.056;9.466;2024-03-25T01:17:17;96454.16;;;9.69;68.28
12973;BME280;6551;51.056;9.466;2024-03-25T01:19:44;96454.69;;;9.71;67.96
12973;BME280;6551;51.056;9.466;2024-03-25T01:22:10;96454.38;;;9.51;68.10
12973;BME280;6551;51.056;9.466;2024-03-25T01:24:36;96463.38;;;9.50;67.51
12973;BME280;6551;51.056;9.466;2024-03-25T01:27:03;96450.03;;;9.61;67.16
12973;BME280;6551;51.056;9.466;2024-03-25T01:29:29;96454.63;;;9.49;66.88
12973;BME280;6551;51.056;9.466;2024-03-25T01:31:54;96460.91;;;9.60;66.42
12973;BME280;6551;51.056;9.466;2024-03-25T01:34:20;96454.16;;;9.52;66.36
12973;BME280;6551;51.056;9.466;2024-03-25T01:36:46;96466.63;;;9.85;66.10
12973;BME280;6551;51.056;9.466;2024-03-25T01:39:11;96469.00;;;9.36;66.31
12973;BME280;6551;51.056;9.466;2024-03-25T01:41:39;96469.22;;;9.63;67.13
12973;BME280;6551;51.056;9.466;2024-03-25T01:44:05;96467.66;;;9.84;65.50
12973;BME280;6551;51.056;9.466;2024-03-25T01:46:31;96463.09;;;9.63;65.37
12973;BME280;6551;51.056;9.466;2024-03-25T01:48:58;96469.31;;;10.07;65.34
12973;BME280;6551;51.056;9.466;2024-03-25T01:51:27;96473.16;;;10.32;64.98
12973;BME280;6551;51.056;9.466;2024-03-25T01:53:55;96475.94;;;10.21;64.44
12973;BME280;6551;51.056;9.466;2024-03-25T01:56:24;96469.41;;;9.95;65.07
12973;BME280;6551;51.056;9.466;2024-03-25T01:58:50;96460.16;;;9.81;65.39
12973;BME280;6551;51.056;9.466;2024-03-25T02:01:19;96470.22;;;9.95;65.26
12973;BME280;6551;51.056;9.466;2024-03-25T02:03:45;96477.00;;;9.70;65.35
12973;BME280;6551;51.056;9.466;2024-03-25T02:06:17;96479.00;;;9.96;65.14
12973;BME280;6551;51.056;9.466;2024-03-25T02:08:44;96485.16;;;9.80;65.35
12973;BME280;6551;51.056;9.466;2024-03-25T02:11:10;96477.25;;;9.52;65.49
12973;BME280;6551;51.056;9.466;2024-03-25T02:13:36;96479.09;;;9.68;65.58
12973;BME280;6551;51.056;9.466;2024-03-25T02:16:04;96478.22;;;9.62;65.50
12973;BME280;6551;51.056;9.466;2024-03-25T02:18:30;96478.63;;;9.54;65.58
12973;BME280;6551;51.056;9.466;2024-03-25T02:20:58;96480.22;;;9.55;66.21
12973;BME280;6551;51.056;9.466;2024-03-25T02:23:26;96486.91;;;9.41;66.17
12973;BME280;6551;51.056;9.466;2024-03-25T02:25:54;96472.25;;;9.55;66.10
12973;BME280;6551;51.056;9.466;2024-03-25T02:28:20;96474.59;;;9.68;66.19
12973;BME280;6551;51.056;9.466;2024-03-25T02:30:47;96481.34;;;9.76;65.96
12973;BME280;6551;51.056;9.466;2024-03-25T02:33:13;96485.03;;;9.75;65.36
12973;BME280;6551;51.056;9.466;2024-03-25T02:35:40;96496.75;;;9.90;65.57
12973;BME280;6551;51.056;9.466;2024-03-25T02:38:08;96498.91;;;9.77;65.32
12973;BME280;6551;51.056;9.466;2024-03-25T02:40:35;96507.91;;;10.09;65.63
12973;BME280;6551;51.056;9.466;2024-03-25T02:43:01;96509.03;;;10.46;65.13
12973;BME280;6551;51.056;9.466;2024-03-25T02:45:28;96505.94;;;10.54;64.42
12973;BME280;6551;51.056;9.466;2024-03-25T02:47:55;96517.88;;;10.74;64.24
12973;BME280;6551;51.056;9.466;2024-03-25T02:50:24;96524.25;;;10.51;64.22
12973;BME280;6551;51.056;9.466;2024-03-25T02:52:49;96528.38;;;10.64;63.84
12973;BME280;6551;51.056;9.466;2024-03-25T02:55:15;96531.78;;;10.59;64.04
12973;BME280;6551;51.056;9.466;2024-03-25T02:57:41;96523.06;;;10.64;64.24
12973;BME280;6551;51.056;9.466;2024-03-25T03:00:07;96525.69;;;10.42;64.21
12973;BME280;6551;51.056;9.466;2024-03-25T03:02:34;96517.94;;;10.02;65.40
12973;BME280;6551;51.056;9.466;2024-03-25T03:05:00;96519.38;;;10.10;65.55
12973;BME280;6551;51.056;9.466;2024-03-25T03:07:26;96519.13;;;9.78;66.70
12973;BME280;6551;51.056;9.466;2024-03-25T03:09:53;96515.84;;;9.71;66.97
12973;BME280;6551;51.056;9.466;2024-03-25T03:12:18;96518.66;;;9.36;67.27
12973;BME280;6551;51.056;9.466;2024-03-25T03:14:44;96528.69;;;9.46;67.56
12973;BME280;6551;51.056;9.466;2024-03-25T03:17:10;96515.97;;;9.48;67.66
12973;BME280;6551;51.056;9.466;2024-03-25T03:19:36;96517.41;;;9.55;67.53
12973;BME280;6551;51.056;9.466;2024-03-25T03:22:02;96523.69;;;9.32;67.88
12973;BME280;6551;51.056;9.466;2024-03-25T03:24:29;96523.84;;;9.43;67.92
12973;BME280;6551;51.056;9.466;2024-03-25T03:26:56;96532.91;;;9.75;67.65
12973;BME280;6551;51.056;9.466;2024-03-25T03:29:23;96542.34;;;9.66;67.39
12973;BME280;6551;51.056;9.466;2024-03-25T03:31:49;96531.09;;;9.47;67.66
12973;BME280;6551;51.056;9.466;2024-03-25T03:34:15;96540.38;;;9.61;67.40
12973;BME280;6551;51.056;9.466;2024-03-25T03:36:40;96536.84;;;9.89;66.85
12973;BME280;6551;51.056;9.466;2024-03-25T03:39:06;96534.25;;;9.61;67.00
12973;BME280;6551;51.056;9.466;2024-03-25T03:41:34;96539.19;;;9.52;66.90
12973;BME280;6551;51.056;9.466;2024-03-25T03:44:01;96542.13;;;9.56;66.90
12973;BME280;6551;51.056;9.466;2024-03-25T03:46:28;96537.06;;;9.54;67.43
12973;BME280;6551;51.056;9.466;2024-03-25T03:48:55;96543.28;;;9.60;67.57
12973;BME280;6551;51.056;9.466;2024-03-25T03:51:21;96548.09;;;9.46;67.74
12973;BME280;6551;51.056;9.466;2024-03-25T03:53:48;96542.38;;;9.54;67.29
12973;BME280;6551;51.056;9.466;2024-03-25T03:56:13;96542.44;;;9.43;67.56
12973;BME280;6551;51.056;9.466;2024-03-25T03:58:39;96541.75;;;9.64;67.42
12973;BME280;6551;51.056;9.466;2024-03-25T04:01:17;96533.22;;;9.62;67.64
12973;BME280;6551;51.056;9.466;2024-03-25T04:03:43;96541.56;;;9.54;67.13
12973;BME280;6551;51.056;9.466;2024-03-25T04:06:13;96544.22;;;9.37;67.57
12973;BME280;6551;51.056;9.466;2024-03-25T04:08:40;96546.13;;;9.41;67.31
12973;BME280;6551;51.056;9.466;2024-03-25T04:11:10;96551.09;;;9.21;66.71
12973;BME280;6551;51.056;9.466;2024-03-25T04:13:36;96555.31;;;9.34;67.04
12973;BME280;6551;51.056;9.466;2024-03-25T04:16:06;96544.88;;;9.61;66.97
12973;BME280;6551;51.056;9.466;2024-03-25T04:18:33;96558.44;;;9.31;68.06
12973;BME280;6551;51.056;9.466;2024-03-25T04:20:59;96551.13;;;9.38;67.28
12973;BME280;6551;51.056;9.466;2024-03-25T04:23:27;96560.81;;;9.61;67.78
12973;BME280;6551;51.056;9.466;2024-03-25T04:25:53;96557.66;;;9.47;67.17
12973;BME280;6551;51.056;9.466;2024-03-25T04:28:20;96550.91;;;9.56;67.08
12973;BME280;6551;51.056;9.466;2024-03-25T04:30:53;96553.66;;;9.61;66.42
12973;BME280;6551;51.056;9.466;2024-03-25T04:33:19;96563.34;;;9.39;66.90
12973;BME280;6551;51.056;9.466;2024-03-25T04:35:46;96561.00;;;9.71;66.88
12973;BME280;6551;51.056;9.466;2024-03-25T04:38:16;96553.25;;;9.53;66.97
12973;BME280;6551;51.056;9.466;2024-03-25T04:40:42;96565.34;;;9.60;66.72
12973;BME280;6551;51.056;9.466;2024-03-25T04:43:09;96568.41;;;9.52;67.05
12973;BME280;6551;51.056;9.466;2024-03-25T04:45:36;96573.69;;;9.35;67.08
12973;BME280;6551;51.056;9.466;2024-03-25T04:48:02;96580.41;;;9.26;67.03
12973;BME280;6551;51.056;9.466;2024-03-25T04:50:30;96576.72;;;9.44;67.31
12973;BME280;6551;51.056;9.466;2024-03-25T04:52:57;96574.31;;;9.43;67.15
12973;BME280;6551;51.056;9.466;2024-03-25T04:55:23;96578.22;;;9.52;66.91
12973;BME280;6551;51.056;9.466;2024-03-25T04:57:48;96579.63;;;9.43;66.49
12973;BME280;6551;51.056;9.466;2024-03-25T05:00:14;96590.47;;;9.24;66.97
12973;BME280;6551;51.056;9.466;2024-03-25T05:02:40;96592.59;;;9.39;66.92
12973;BME280;6551;51.056;9.466;2024-03-25T05:05:06;96594.13;;;9.35;66.96
12973;BME280;6551;51.056;9.466;2024-03-25T05:07:35;96597.63;;;9.52;66.80
12973;BME280;6551;51.056;9.466;2024-03-25T05:10:01;96595.25;;;9.39;66.73
12973;BME280;6551;51.056;9.466;2024-03-25T05:12:28;96598.56;;;9.74;66.10
12973;BME280;6551;51.056;9.466;2024-03-25T05:14:57;96602.75;;;9.87;66.16
12973;BME280;6551;51.056;9.466;2024-03-25T05:17:24;96598.34;;;9.92;65.72
12973;BME280;6551;51.056;9.466;2024-03-25T05:19:50;96600.56;;;9.84;65.58
12973;BME280;6551;51.056;9.466;2024-03-25T05:22:16;96604.19;;;9.94;65.04
12973;BME280;6551;51.056;9.466;2024-03-25T05:24:43;96608.47;;;9.79;65.56
12973;BME280;6551;51.056;9.466;2024-03-25T05:27:10;96608.56;;;9.84;65.57
12973;BME280;6551;51.056;9.466;2024-03-25T05:29:35;96612.59;;;9.58;65.27
12973;BME280;6551;51.056;9.466;2024-03-25T05:32:02;96612.50;;;9.53;65.47
12973;BME280;6551;51.056;9.466;2024-03-25T05:34:28;96615.47;;;9.40;65.86
12973;BME280;6551;51.056;9.466;2024-03-25T05:36:56;96608.84;;;9.14;66.77
12973;BME280;6551;51.056;9.466;2024-03-25T05:39:23;96610.28;;;8.94;67.70
12973;BME280;6551;51.056;9.466;2024-03-25T05:41:49;96620.09;;;9.33;68.29
12973;BME280;6551;51.056;9.466;2024-03-25T05:44:15;96622.91;;;9.55;66.64
12973;BME280;6551;51.056;9.466;2024-03-25T05:46:42;96625.56;;;9.55;66.83
12973;BME280;6551;51.056;9.466;2024-03-25T05:49:09;96624.50;;;9.84;66.81
12973;BME280;6551;51.056;9.466;2024-03-25T05:51:34;96619.81;;;9.74;66.50
12973;BME280;6551;51.056;9.466;2024-03-25T05:54:00;96624.47;;;9.67;66.56
12973;BME280;6551;51.056;9.466;2024-03-25T05:56:26;96621.75;;;9.51;67.11
12973;BME280;6551;51.056;9.466;2024-03-25T05:58:59;96623.53;;;9.73;66.73
12973;BME280;6551;51.056;9.466;2024-03-25T06:01:28;96616.91;;;9.76;66.78
12973;BME280;6551;51.056;9.466;2024-03-25T06:03:56;96624.34;;;9.74;66.75
12973;BME280;6551;51.056;9.466;2024-03-25T06:06:23;96624.00;;;9.70;67.21
12973;BME280;6551;51.056;9.466;2024-03-25T06:08:48;96618.53;;;9.77;66.29
12973;BME280;6551;51.056;9.466;2024-03-25T06:11:16;96618.53;;;9.77;66.10
12973;BME280;6551;51.056;9.466;2024-03-25T06:13:46;96627.91;;;9.96;65.75
12973;BME280;6551;51.056;9.466;2024-03-25T06:16:14;96633.91;;;9.75;65.55
12973;BME280;6551;51.056;9.466;2024-03-25T06:18:39;96631.84;;;9.77;65.70
12973;BME280;6551;51.056;9.466;2024-03-25T06:21:06;96632.28;;;10.02;65.04
12973;BME280;6551;51.056;9.466;2024-03-25T06:23:33;96629.50;;;9.97;65.35
12973;BME280;6551;51.056;9.466;2024-03-25T06:25:59;96630.63;;;9.84;65.36
12973;BME280;6551;51.056;9.466;2024-03-25T06:28:25;96640.78;;;9.87;65.01
12973;BME280;6551;51.056;9.466;2024-03-25T06:30:51;96649.97;;;9.80;64.99
12973;BME280;6551;51.056;9.466;2024-03-25T06:33:36;96634.31;;;9.83;65.26
12973;BME280;6551;51.056;9.466;2024-03-25T06:36:21;96642.16;;;9.90;65.62
12973;BME280;6551;51.056;9.466;2024-03-25T06:38:47;96640.50;;;9.72;65.37
12973;BME280;6551;51.056;9.466;2024-03-25T06:41:13;96641.41;;;9.78;65.32
12973;BME280;6551;51.056;9.466;2024-03-25T06:43:39;96649.38;;;9.78;65.23
12973;BME280;6551;51.056;9.466;2024-03-25T06:46:05;96651.03;;;9.67;65.41
12973;BME280;6551;51.056;9.466;2024-03-25T06:48:32;96664.75;;;9.76;65.44
12973;BME280;6551;51.056;9.466;2024-03-25T06:51:00;96656.41;;;9.84;65.15
12973;BME280;6551;51.056;9.466;2024-03-25T06:53:29;96673.38;;;9.83;65.70
12973;BME280;6551;51.056;9.466;2024-03-25T06:55:59;96673.63;;;9.81;65.51
12973;BME280;6551;51.056;9.466;2024-03-25T06:58:27;96675.44;;;9.92;65.14
12973;BME280;6551;51.056;9.466;2024-03-25T07:00:56;96672.91;;;9.86;65.26
12973;BME280;6551;51.056;9.466;2024-03-25T07:03:23;96671.31;;;9.85;64.82
12973;BME280;6551;51.056;9.466;2024-03-25T07:05:51;96680.97;;;9.74;65.84
12973;BME280;6551;51.056;9.466;2024-03-25T07:08:21;96677.72;;;9.72;65.50
12973;BME280;6551;51.056;9.466;2024-03-25T07:10:47;96680.00;;;9.80;65.86
12973;BME280;6551;51.056;9.466;2024-03-25T07:13:14;96677.59;;;9.79;65.61
12973;BME280;6551;51.056;9.466;2024-03-25T07:15:40;96677.81;;;9.49;65.83
12973;BME280;6551;51.056;9.466;2024-03-25T07:18:06;96683.75;;;9.68;65.76
12973;BME280;6551;51.056;9.466;2024-03-25T07:20:32;96681.47;;;9.88;65.68
12973;BME280;6551;51.056;9.466;2024-03-25T07:22:59;96678.97;;;9.81;65.37
12973;BME280;6551;51.056;9.466;2024-03-25T07:25:25;96693.06;;;9.82;65.22
12973;BME280;6551;51.056;9.466;2024-03-25T07:27:52;96691.66;;;9.91;65.25
12973;BME280;6551;51.056;9.466;2024-03-25T07:30:22;96699.31;;;10.16;65.13
12973;BME280;6551;51.056;9.466;2024-03-25T07:32:50;96697.13;;;9.73;64.36
12973;BME280;6551;51.056;9.466;2024-03-25T07:35:16;96700.44;;;10.08;64.91
12973;BME280;6551;51.056;9.466;2024-03-25T07:37:43;96708.13;;;10.33;64.58
12973;BME280;6551;51.056;9.466;2024-03-25T07:40:09;96707.88;;;10.34;63.90
12973;BME280;6551;51.056;9.466;2024-03-25T07:42:39;96696.19;;;10.35;63.89
12973;BME280;6551;51.056;9.466;2024-03-25T07:45:06;96703.34;;;10.07;63.78
12973;BME280;6551;51.056;9.466;2024-03-25T07:47:35;96705.03;;;10.24;64.20
12973;BME280;6551;51.056;9.466;2024-03-25T07:50:02;96713.69;;;9.91;64.00
12973;BME280;6551;51.056;9.466;2024-03-25T07:52:28;96705.19;;;9.78;65.06
12973;BME280;6551;51.056;9.466;2024-03-25T07:54:54;96719.66;;;10.10;65.14
12973;BME280;6551;51.056;9.466;2024-03-25T07:57:21;96723.31;;;10.21;64.43
12973;BME280;6551;51.056;9.466;2024-03-25T07:59:48;96722.09;;;10.00;64.67
12973;BME280;6551;51.056;9.466;2024-03-25T08:02:15;96730.84;;;10.24;63.55
12973;BME280;6551;51.056;9.466;2024-03-25T08:04:41;96723.22;;;10.61;63.32
12973;BME280;6551;51.056;9.466;2024-03-25T08:07:08;96732.84;;;10.33;63.84
12973;BME280;6551;51.056;9.466;2024-03-25T08:09:34;96728.00;;;10.02;63.63
12973;BME280;6551;51.056;9.466;2024-03-25T08:12:01;96720.41;;;10.22;64.24
12973;BME280;6551;51.056;9.466;2024-03-25T08:14:27;96726.47;;;10.18;64.05
12973;BME280;6551;51.056;9.466;2024-03-25T08:16:54;96720.50;;;10.27;63.90
12973;BME280;6551;51.056;9.466;2024-03-25T08:19:20;96732.28;;;10.31;64.01
12973;BME280;6551;51.056;9.466;2024-03-25T08:21:45;96738.59;;;10.58;63.79
12973;BME280;6551;51.056;9.466;2024-03-25T08:24:13;96741.84;;;10.94;63.22
12973;BME280;6551;51.056;9.466;2024-03-25T08:26:39;96736.69;;;10.87;62.17
12973;BME280;6551;51.056;9.466;2024-03-25T08:29:05;96733.56;;;11.29;62.14
12973;BME280;6551;51.056;9.466;2024-03-25T08:31:31;96733.44;;;11.40;61.17
12973;BME280;6551;51.056;9.466;2024-03-25T08:33:58;96737.63;;;11.96;60.49
12973;BME280;6551;51.056;9.466;2024-03-25T08:36:24;96744.34;;;12.25;59.74
12973;BME280;6551;51.056;9.466;2024-03-25T08:38:49;96747.88;;;12.31;58.89
12973;BME280;6551;51.056;9.466;2024-03-25T08:41:15;96749.00;;;12.35;59.05
12973;BME280;6551;51.056;9.466;2024-03-25T08:43:43;96749.09;;;13.09;58.63
12973;BME280;6551;51.056;9.466;2024-03-25T08:46:09;96746.53;;;13.24;57.32
12973;BME280;6551;51.056;9.466;2024-03-25T08:48:35;96750.72;;;13.52;56.36
12973;BME280;6551;51.056;9.466;2024-03-25T08:51:00;96744.09;;;13.64;55.95
12973;BME280;6551;51.056;9.466;2024-03-25T08:53:26;96744.22;;;13.01;55.81
12973;BME280;6551;51.056;9.466;2024-03-25T08:55:52;96742.59;;;13.00;56.59
12973;BME280;6551;51.056;9.466;2024-03-25T08:58:17;96745.06;;;13.06;56.50
12973;BME280;6551;51.056;9.466;2024-03-25T09:00:43;96748.19;;;12.98;57.42
12973;BME280;6551;51.056;9.466;2024-03-25T09:03:09;96737.47;;;12.61;56.61
12973;BME280;6551;51.056;9.466;2024-03-25T09:05:37;96741.22;;;12.60;56.92
12973;BME280;6551;51.056;9.466;2024-03-25T09:08:06;96737.00;;;12.69;57.54
12973;BME280;6551;51.056;9.466;2024-03-25T09:10:32;96728.28;;;12.79;56.62
12973;BME280;6551;51.056;9.466;2024-03-25T09:13:16;96733.81;;;13.04;56.76
12973;BME280;6551;51.056;9.466;2024-03-25T09:15:42;96728.47;;;13.41;57.24
12973;BME280;6551;51.056;9.466;2024-03-25T09:18:08;96735.84;;;13.24;54.99
12973;BME280;6551;51.056;9.466;2024-03-25T09:20:33;96739.84;;;12.89;55.55
12973;BME280;6551;51.056;9.466;2024-03-25T09:22:59;96741.00;;;12.99;55.55
12973;BME280;6551;51.056;9.466;2024-03-25T09:25:25;96738.34;;;14.02;53.24
12973;BME280;6551;51.056;9.466;2024-03-25T09:27:51;96733.94;;;15.29;53.02
12973;BME280;6551;51.056;9.466;2024-03-25T09:30:17;96733.22;;;15.93;50.34
12973;BME280;6551;51.056;9.466;2024-03-25T09:32:46;96729.00;;;16.30;47.53
12973;BME280;6551;51.056;9.466;2024-03-25T09:35:12;96728.44;;;16.77;47.95
12973;BME280;6551;51.056;9.466;2024-03-25T09:37:38;96734.28;;;17.47;48.29
12973;BME280;6551;51.056;9.466;2024-03-25T09:40:08;96727.50;;;17.26;46.23
12973;BME280;6551;51.056;9.466;2024-03-25T09:43:00;96725.34;;;16.94;46.39
12973;BME280;6551;51.056;9.466;2024-03-25T09:45:29;96719.47;;;16.09;47.56
12973;BME280;6551;51.056;9.466;2024-03-25T09:47:56;96727.16;;;15.62;46.87
12973;BME280;6551;51.056;9.466;2024-03-25T09:50:25;96734.50;;;15.21;47.69
12973;BME280;6551;51.056;9.466;2024-03-25T09:52:51;96724.31;;;14.62;48.84
12973;BME280;6551;51.056;9.466;2024-03-25T09:55:17;96731.28;;;14.84;49.18
12973;BME280;6551;51.056;9.466;2024-03-25T09:57:44;96730.75;;;14.82;49.03
12973;BME280;6551;51.056;9.466;2024-03-25T10:00:11;96727.47;;;15.45;48.11
12973;BME280;6551;51.056;9.466;2024-03-25T10:02:39;96721.41;;;15.99;47.85
12973;BME280;6551;51.056;9.466;2024-03-25T10:05:05;96720.34;;;16.38;46.46
12973;BME280;6551;51.056;9.466;2024-03-25T10:07:32;96722.53;;;16.36;45.66
12973;BME280;6551;51.056;9.466;2024-03-25T10:09:59;96725.50;;;16.35;45.53
12973;BME280;6551;51.056;9.466;2024-03-25T10:12:29;96732.19;;;16.37;45.83
12973;BME280;6551;51.056;9.466;2024-03-25T10:14:55;96734.63;;;15.85;45.48
12973;BME280;6551;51.056;9.466;2024-03-25T10:17:24;96725.50;;;15.81;45.23
12973;BME280;6551;51.056;9.466;2024-03-25T10:19:50;96725.56;;;15.61;46.10
12973;BME280;6551;51.056;9.466;2024-03-25T10:22:16;96720.34;;;15.90;46.51
12973;BME280;6551;51.056;9.466;2024-03-25T10:24:44;96716.97;;;17.01;47.06
12973;BME280;6551;51.056;9.466;2024-03-25T10:27:21;96714.28;;;17.82;44.76
12973;BME280;6551;51.056;9.466;2024-03-25T10:29:53;96718.69;;;18.15;42.10
12973;BME280;6551;51.056;9.466;2024-03-25T10:32:19;96706.41;;;17.85;42.16
12973;BME280;6551;51.056;9.466;2024-03-25T10:34:45;96701.97;;;17.94;43.54
12973;BME280;6551;51.056;9.466;2024-03-25T10:37:12;96706.41;;;17.85;41.72
12973;BME280;6551;51.056;9.466;2024-03-25T10:39:47;96702.16;;;18.96;41.02
12973;BME280;6551;51.056;9.466;2024-03-25T10:42:20;96697.09;;;19.22;39.01
12973;BME280;6551;51.056;9.466;2024-03-25T10:44:47;96696.41;;;19.30;38.44
12973;BME280;6551;51.056;9.466;2024-03-25T10:47:25;96689.84;;;19.50;38.11
12973;BME280;6551;51.056;9.466;2024-03-25T10:50:07;96683.25;;;19.56;38.83
12973;BME280;6551;51.056;9.466;2024-03-25T10:52:36;96697.09;;;18.57;38.69
12973;BME280;6551;51.056;9.466;2024-03-25T10:55:04;96702.34;;;18.49;38.92
12973;BME280;6551;51.056;9.466;2024-03-25T10:57:33;96702.25;;;18.35;38.82
12973;BME280;6551;51.056;9.466;2024-03-25T11:00:01;96696.34;;;17.72;40.61
12973;BME280;6551;51.056;9.466;2024-03-25T11:02:30;96691.72;;;17.54;40.30
12973;BME280;6551;51.056;9.466;2024-03-25T11:04:59;96687.00;;;17.12;41.47
12973;BME280;6551;51.056;9.466;2024-03-25T11:07:31;96685.19;;;16.35;42.58
12973;BME280;6551;51.056;9.466;2024-03-25T11:10:06;96679.56;;;16.31;42.75
12973;BME280;6551;51.056;9.466;2024-03-25T11:12:46;96670.25;;;16.19;43.33
12973;BME280;6551;51.056;9.466;2024-03-25T11:15:15;96671.88;;;16.59;42.18
12973;BME280;6551;51.056;9.466;2024-03-25T11:17:49;96667.34;;;17.64;41.98
12973;BME280;6551;51.056;9.466;2024-03-25T11:20:19;96663.50;;;18.31;40.12
12973;BME280;6551;51.056;9.466;2024-03-25T11:22:54;96656.41;;;18.73;39.37
12973;BME280;6551;51.056;9.466;2024-03-25T11:25:22;96659.13;;;18.35;39.17
12973;BME280;6551;51.056;9.466;2024-03-25T11:27:50;96649.41;;;19.17;37.06
12973;BME280;6551;51.056;9.466;2024-03-25T11:30:16;96650.81;;;19.28;36.28
12973;BME280;6551;51.056;9.466;2024-03-25T11:32:51;96657.88;;;19.11;37.82
12973;BME280;6551;51.056;9.466;2024-03-25T11:35:18;96654.41;;;18.78;37.47
12973;BME280;6551;51.056;9.466;2024-03-25T11:37:44;96660.63;;;18.79;39.16
12973;BME280;6551;51.056;9.466;2024-03-25T11:40:11;96656.00;;;18.09;39.66
12973;BME280;6551;51.056;9.466;2024-03-25T11:42:42;96653.00;;;18.11;40.94
12973;BME280;6551;51.056;9.466;2024-03-25T11:45:20;96648.97;;;18.27;39.64
12973;BME280;6551;51.056;9.466;2024-03-25T11:47:49;96653.09;;;17.40;40.36
12973;BME280;6551;51.056;9.466;2024-03-25T11:50:17;96641.38;;;17.49;39.80
12973;BME280;6551;51.056;9.466;2024-03-25T11:52:43;96644.31;;;17.77;39.28
12973;BME280;6551;51.056;9.466;2024-03-25T11:55:10;96641.56;;;17.82;39.02
12973;BME280;6551;51.056;9.466;2024-03-25T11:57:37;96638.72;;;17.92;39.09
12973;BME280;6551;51.056;9.466;2024-03-25T12:00:07;96637.09;;;17.91;40.31
12973;BME280;6551;51.056;9.466;2024-03-25T12:02:37;96630.75;;;17.39;39.64
12973;BME280;6551;51.056;9.466;2024-03-25T12:05:06;96629.56;;;17.27;39.33
12973;BME280;6551;51.056;9.466;2024-03-25T12:07:34;96631.59;;;16.54;40.13
12973;BME280;6551;51.056;9.466;2024-03-25T12:10:02;96631.31;;;16.16;39.86
12973;BME280;6551;51.056;9.466;2024-03-25T12:12:47;96619.13;;;16.68;40.19
12973;BME280;6551;51.056;9.466;2024-03-25T12:15:13;96618.00;;;16.40;39.53
12973;BME280;6551;51.056;9.466;2024-03-25T12:17:39;96623.50;;;16.87;40.01
12973;BME280;6551;51.056;9.466;2024-03-25T12:20:07;96612.13;;;16.67;39.48
12973;BME280;6551;51.056;9.466;2024-03-25T12:22:35;96615.16;;;16.60;39.18
12973;BME280;6551;51.056;9.466;2024-03-25T12:25:04;96607.44;;;17.30;39.12
12973;BME280;6551;51.056;9.466;2024-03-25T12:27:38;96603.69;;;17.92;39.59
12973;BME280;6551;51.056;9.466;2024-03-25T12:30:09;96606.41;;;17.02;39.45
12973;BME280;6551;51.056;9.466;2024-03-25T12:32:45;96580.28;;;16.50;41.02
12973;BME280;6551;51.056;9.466;2024-03-25T12:35:13;96591.50;;;16.62;39.91
12973;BME280;6551;51.056;9.466;2024-03-25T12:37:49;96594.13;;;16.96;39.91
12973;BME280;6551;51.056;9.466;2024-03-25T12:40:29;96589.66;;;17.52;39.42
12973;BME280;6551;51.056;9.466;2024-03-25T12:42:59;96584.06;;;17.49;39.20
12973;BME280;6551;51.056;9.466;2024-03-25T12:45:26;96579.25;;;17.70;38.14
12973;BME280;6551;51.056;9.466;2024-03-25T12:47:51;96576.31;;;17.24;38.72
12973;BME280;6551;51.056;9.466;2024-03-25T12:50:17;96575.78;;;16.98;39.24
12973;BME280;6551;51.056;9.466;2024-03-25T12:52:45;96568.97;;;17.29;39.78
12973;BME280;6551;51.056;9.466;2024-03-25T12:55:11;96567.44;;;16.08;39.31
12973;BME280;6551;51.056;9.466;2024-03-25T12:57:36;96564.66;;;16.23;40.84
12973;BME280;6551;51.056;9.466;2024-03-25T13:00:04;96576.38;;;16.95;40.43
12973;BME280;6551;51.056;9.466;2024-03-25T13:02:32;96571.69;;;16.53;39.66
12973;BME280;6551;51.056;9.466;2024-03-25T13:04:58;96578.25;;;16.37;39.82
12973;BME280;6551;51.056;9.466;2024-03-25T13:07:25;96569.59;;;16.74;39.82
12973;BME280;6551;51.056;9.466;2024-03-25T13:09:50;96561.28;;;16.42;40.29
12973;BME280;6551;51.056;9.466;2024-03-25T13:12:17;96569.50;;;16.55;39.05
12973;BME280;6551;51.056;9.466;2024-03-25T13:14:43;96564.50;;;16.38;38.83
12973;BME280;6551;51.056;9.466;2024-03-25T13:17:08;96563.81;;;16.62;38.46
12973;BME280;6551;51.056;9.466;2024-03-25T13:19:34;96569.72;;;17.11;39.54